Time;durP1;ratioP1;P1;durP2;ratioP2;P2;SDS_P1;SDS_P2;PMS_P1;PMS_P2;Temp;Humidity;BMP_temperature;BMP_pressure;BME280_temperature;BME280_humidity;BME280_pressure;Samples;Min_cycle;Max_cycle;Signal;HPM_P1;HPM_P2
2022/08/22 00:02:09;;;;;;;4.10;3.00;;;;;;;18.69;59.16;96563.47;4974758;28;20054;-74
2022/08/22 00:04:44;;;;;;;5.43;3.15;;;;;;;18.72;64.14;96565.66;4975205;28;20054;-74
2022/08/22 00:07:24;;;;;;;4.22;3.13;;;;;;;18.67;57.43;96561.09;4974935;28;20142;-74
2022/08/22 00:09:59;;;;;;;5.80;3.47;;;;;;;18.57;56.48;96560.88;4974821;28;20456;-74
2022/08/22 00:12:33;;;;;;;4.45;3.03;;;;;;;18.50;56.38;96555.72;4974986;28;20501;-74
2022/08/22 00:15:08;;;;;;;5.53;2.78;;;;;;;18.46;56.17;96554.56;4975010;28;20536;-74
2022/08/22 00:18:02;;;;;;;4.43;3.00;;;;;;;18.39;56.02;96558.38;4975321;28;20055;-74
2022/08/22 00:20:37;;;;;;;5.22;3.35;;;;;;;18.33;55.99;96549.53;4974488;28;20414;-73
2022/08/22 00:23:16;;;;;;;5.32;2.72;;;;;;;18.32;56.38;96553.22;4974901;28;20093;-74
2022/08/22 00:25:53;;;;;;;5.00;3.30;;;;;;;18.35;56.17;96554.59;4974548;28;20421;-74
2022/08/22 00:28:28;;;;;;;4.40;3.15;;;;;;;18.36;56.17;96549.06;4974294;28;20054;-74
2022/08/22 00:31:02;;;;;;;3.80;3.22;;;;;;;18.39;58.59;96553.91;4976677;28;20085;-74
2022/08/22 00:33:39;;;;;;;3.67;2.63;;;;;;;18.40;56.74;96550.22;4976450;28;20146;-74
2022/08/22 00:36:16;;;;;;;3.53;3.03;;;;;;;18.40;56.52;96552.84;4975167;28;20078;-74
2022/08/22 00:38:52;;;;;;;4.32;2.72;;;;;;;18.37;56.23;96544.63;4974616;28;20138;-75
2022/08/22 00:41:33;;;;;;;3.03;2.70;;;;;;;18.35;56.86;96552.75;4974198;28;20146;-74
2022/08/22 00:44:34;;;;;;;5.35;3.33;;;;;;;18.42;63.39;96558.72;4974542;28;20078;-74
2022/08/22 00:47:19;;;;;;;5.38;2.70;;;;;;;18.38;57.32;96554.94;4974448;28;20070;-74
2022/08/22 00:50:05;;;;;;;6.30;2.90;;;;;;;18.33;57.59;96547.72;4974437;28;20409;-74
2022/08/22 00:52:58;;;;;;;3.30;3.00;;;;;;;18.30;57.10;96547.34;4974354;28;20130;-74
2022/08/22 00:55:40;;;;;;;3.85;2.83;;;;;;;18.27;58.96;96550.47;4978206;28;20042;-74
2022/08/22 00:58:35;;;;;;;3.95;2.88;;;;;;;18.25;57.86;96549.91;4996735;28;20054;-74
2022/08/22 01:01:06;;;;;;;4.28;2.83;;;;;;;18.21;57.15;96552.19;4992237;28;20061;-74
2022/08/22 01:04:24;;;;;;;2.78;2.58;;;;;;;18.20;57.38;96547.16;4977103;28;20051;-74
2022/08/22 01:07:07;;;;;;;3.75;3.35;;;;;;;18.20;61.94;96558.50;4969118;28;20164;-74
2022/08/22 01:09:48;;;;;;;5.90;3.95;;;;;;;18.25;63.76;96547.25;4974382;28;20057;-74
2022/08/22 01:12:38;;;;;;;4.68;3.90;;;;;;;18.30;66.19;96560.56;4973660;28;20513;-74
2022/08/22 01:15:09;;;;;;;6.88;4.00;;;;;;;18.30;67.31;96561.38;4974000;28;20074;-74
2022/08/22 01:18:01;;;;;;;5.50;3.97;;;;;;;18.30;65.60;96557.91;4974110;28;20130;-74
2022/08/22 01:21:11;;;;;;;5.43;4.13;;;;;;;18.26;65.28;96562.88;4973636;28;20082;-74
2022/08/22 01:24:12;;;;;;;6.20;4.30;;;;;;;18.22;63.27;96560.94;4973499;28;20516;-74
2022/08/22 01:27:14;;;;;;;5.40;4.00;;;;;;;18.20;64.04;96561.16;4973946;28;20055;-74
2022/08/22 01:30:07;;;;;;;6.10;4.32;;;;;;;18.08;60.46;96558.53;4973509;28;20488;-74
2022/08/22 01:33:28;;;;;;;4.80;2.92;;;;;;;18.00;60.82;96556.22;4972963;28;20053;-74
2022/08/22 01:36:07;;;;;;;5.25;2.90;;;;;;;17.90;59.74;96551.50;4973571;28;20054;-74
2022/08/22 01:38:49;;;;;;;5.25;3.13;;;;;;;17.81;59.35;96552.06;4973595;28;20141;-74
2022/08/22 01:41:36;;;;;;;4.15;3.22;;;;;;;17.77;65.04;96556.97;4973686;28;20529;-74
2022/08/22 01:44:21;;;;;;;3.47;3.13;;;;;;;17.84;65.48;96554.25;4973373;28;20082;-74
2022/08/22 01:46:59;;;;;;;4.43;3.75;;;;;;;17.91;68.20;96552.34;4973400;28;20149;-74
2022/08/22 01:49:37;;;;;;;3.10;2.80;;;;;;;17.93;64.00;96555.56;4973592;28;20070;-74
2022/08/22 01:52:10;;;;;;;2.75;2.53;;;;;;;17.94;64.32;96558.97;4973354;28;20509;-74
2022/08/22 01:54:48;;;;;;;3.17;2.70;;;;;;;17.94;66.46;96557.16;4973447;28;20054;-74
2022/08/22 01:57:18;;;;;;;4.25;3.15;;;;;;;17.99;67.21;96562.53;4973309;28;20505;-73
2022/08/22 01:59:48;;;;;;;3.83;2.92;;;;;;;18.02;69.25;96558.66;4973303;28;20074;-74
2022/08/22 02:02:31;;;;;;;4.85;3.55;;;;;;;18.05;69.95;96558.19;4973337;28;20133;-74
2022/08/22 02:05:06;;;;;;;4.82;3.22;;;;;;;18.03;63.90;96560.25;4973754;28;20047;-73
2022/08/22 02:07:45;;;;;;;5.10;3.63;;;;;;;17.94;62.19;96562.41;4997995;28;20042;-73
2022/08/22 02:10:20;;;;;;;4.53;3.40;;;;;;;17.85;61.05;96555.88;4997705;28;20055;-73
2022/08/22 02:12:56;;;;;;;3.30;3.00;;;;;;;17.80;65.03;96559.19;4978131;28;20129;-74
2022/08/22 02:15:30;;;;;;;6.18;3.92;;;;;;;17.69;61.37;96558.13;4975570;28;20138;-74
2022/08/22 02:18:12;;;;;;;4.05;3.03;;;;;;;17.61;60.72;96558.47;4975166;28;20055;-74
2022/08/22 02:20:56;;;;;;;4.43;3.22;;;;;;;17.57;61.12;96567.06;4973693;28;20049;-74
2022/08/22 02:23:33;;;;;;;5.82;3.30;;;;;;;17.56;62.17;96560.16;4973617;28;20054;-74
2022/08/22 02:26:08;;;;;;;4.43;3.28;;;;;;;17.61;64.97;96555.81;4973795;28;20078;-75
2022/08/22 02:28:46;;;;;;;4.75;3.92;;;;;;;17.69;69.92;96563.41;4973548;28;20089;-74
2022/08/22 02:31:36;;;;;;;5.60;3.67;;;;;;;17.78;70.88;96557.81;4973266;28;20046;-74
2022/08/22 02:34:23;;;;;;;3.88;3.40;;;;;;;17.78;70.61;96548.06;4972939;28;20050;-74
2022/08/22 02:37:02;;;;;;;3.65;3.35;;;;;;;17.82;71.61;96554.50;4974238;28;20374;-74
2022/08/22 02:39:37;;;;;;;3.88;3.47;;;;;;;17.81;70.74;96552.84;4973533;28;20126;-74
2022/08/22 02:42:17;;;;;;;4.25;3.70;;;;;;;17.84;72.47;96547.16;4973148;28;20086;-74
2022/08/22 02:44:56;;;;;;;4.95;3.10;;;;;;;17.84;68.40;96543.72;4974858;28;20107;-74
2022/08/22 02:47:31;;;;;;;4.93;3.60;;;;;;;17.77;65.31;96545.63;4976761;28;20477;-73
2022/08/22 02:50:06;;;;;;;3.75;3.40;;;;;;;17.77;70.03;96550.91;4976481;28;20057;-74
2022/08/22 02:52:52;;;;;;;3.92;3.10;;;;;;;17.75;65.88;96543.22;4976410;28;20535;-74
2022/08/22 02:55:35;;;;;;;4.45;3.28;;;;;;;17.68;64.41;96545.97;4976269;28;20051;-74
2022/08/22 02:58:08;;;;;;;5.78;3.80;;;;;;;17.67;66.10;96541.72;4976394;28;20218;-74
2022/08/22 03:00:46;;;;;;;3.50;3.20;;;;;;;17.70;67.27;96543.91;4976161;28;20138;-74
2022/08/22 03:03:19;;;;;;;3.50;3.20;;;;;;;17.71;67.10;96542.88;4996813;23;20057;-86
2022/08/22 03:05:59;;;;;;;4.68;3.55;;;;;;;17.69;65.92;96538.88;4992593;28;20062;-87
2022/08/22 03:08:31;;;;;;;3.92;3.42;;;;;;;17.64;64.34;96536.88;4993528;28;20051;-88
2022/08/22 03:11:11;;;;;;;4.75;3.47;;;;;;;17.63;63.09;96537.94;4993198;28;20605;-87
2022/08/22 03:13:53;;;;;;;4.10;3.33;;;;;;;17.57;61.93;96541.47;4994057;28;20055;-88
2022/08/22 03:16:29;;;;;;;4.40;3.70;;;;;;;17.52;62.15;96543.22;4993205;28;20077;-88
2022/08/22 03:19:04;;;;;;;4.15;3.42;;;;;;;17.52;63.31;96543.22;4992378;28;20054;-82
2022/08/22 03:21:35;;;;;;;3.85;3.47;;;;;;;17.55;65.66;96542.75;4991289;28;20130;-84
2022/08/22 03:24:11;;;;;;;5.50;3.55;;;;;;;17.48;62.32;96537.56;4992327;28;20083;-82
2022/08/22 03:26:46;;;;;;;3.88;3.58;;;;;;;17.41;63.33;96536.88;4992688;28;20596;-82
2022/08/22 03:29:20;;;;;;;4.13;3.72;;;;;;;17.36;62.03;96536.72;4992568;28;20077;-82
2022/08/22 03:32:11;;;;;;;3.95;3.53;;;;;;;17.36;63.99;96536.72;4991523;28;20062;-83
2022/08/22 03:34:54;;;;;;;5.32;4.10;;;;;;;17.34;62.31;96534.34;4992017;28;20066;-79
2022/08/22 03:37:28;;;;;;;3.65;3.35;;;;;;;17.29;62.85;96536.84;4991861;28;20074;-83
2022/08/22 03:40:00;;;;;;;4.60;3.75;;;;;;;17.24;62.54;96531.44;4990037;28;20497;-86
2022/08/22 03:42:58;;;;;;;3.90;3.58;;;;;;;17.25;66.84;96540.94;4990717;28;20070;-83
2022/08/22 03:45:50;;;;;;;4.72;3.63;;;;;;;17.22;63.18;96536.13;4990291;28;20051;-83
2022/08/22 03:49:00;;;;;;;5.82;4.35;;;;;;;17.11;63.07;96535.06;4989372;28;20110;-84
2022/08/22 03:51:39;;;;;;;5.28;4.65;;;;;;;17.01;63.22;96529.53;4989430;28;20051;-80
2022/08/22 03:54:43;;;;;;;6.13;4.25;;;;;;;16.96;63.50;96539.94;4989074;28;20083;-81
2022/08/22 03:57:48;;;;;;;4.97;4.28;;;;;;;16.95;64.18;96544.41;4987163;28;20544;-79
2022/08/22 04:00:28;;;;;;;4.90;4.25;;;;;;;16.93;63.37;96546.47;4991160;28;20078;-83
2022/08/22 04:03:16;;;;;;;5.40;4.00;;;;;;;16.95;63.42;96543.63;4993245;28;20058;-83
2022/08/22 04:06:03;;;;;;;4.65;4.00;;;;;;;16.95;65.12;96554.16;4977911;28;20051;-79
2022/08/22 04:09:08;;;;;;;4.32;3.80;;;;;;;17.03;70.54;96551.19;4979034;28;20078;-78
2022/08/22 04:12:12;;;;;;;5.53;4.38;;;;;;;17.08;70.68;96553.97;4974592;28;20055;-80
2022/08/22 04:15:04;;;;;;;4.60;3.90;;;;;;;17.10;67.04;96559.84;4979078;28;20564;-79
2022/08/22 04:17:55;;;;;;;6.13;4.70;;;;;;;17.09;68.39;96560.84;4978715;28;20086;-87
2022/08/22 04:20:53;;;;;;;4.25;3.85;;;;;;;17.06;66.72;96563.94;4979990;28;20138;-79
2022/08/22 04:23:56;;;;;;;5.55;3.92;;;;;;;17.02;65.46;96555.66;4979682;28;20469;-82
2022/08/22 04:26:34;;;;;;;5.95;4.65;;;;;;;17.02;67.15;96560.13;4980094;28;20520;-82
2022/08/22 04:29:07;;;;;;;5.53;4.43;;;;;;;16.98;64.73;96564.25;4981758;28;20107;-82
2022/08/22 04:31:46;;;;;;;5.80;4.35;;;;;;;16.99;70.51;96560.56;4980687;28;20089;-85
2022/08/22 04:34:18;;;;;;;6.97;4.35;;;;;;;16.98;67.25;96556.34;4980766;28;20137;-83
2022/08/22 04:36:54;;;;;;;8.00;4.47;;;;;;;17.00;72.13;96562.19;4980511;28;20085;-81
2022/08/22 04:39:27;;;;;;;5.72;5.00;;;;;;;17.04;72.47;96563.34;4980169;28;20082;-84
2022/08/22 04:42:02;;;;;;;6.72;4.93;;;;;;;17.06;69.33;96567.38;4979078;28;20516;-84
2022/08/22 04:44:56;;;;;;;6.32;4.78;;;;;;;17.07;70.59;96574.25;4980002;28;20118;-82
2022/08/22 04:47:30;;;;;;;5.13;4.40;;;;;;;17.03;66.95;96573.09;4982047;28;20082;-81
2022/08/22 04:50:05;;;;;;;5.15;4.65;;;;;;;17.01;69.31;96576.97;4983439;28;20347;-86
2022/08/22 04:52:47;;;;;;;6.47;5.00;;;;;;;17.02;70.37;96575.94;4985442;28;20051;-88
2022/08/22 04:55:25;;;;;;;4.53;4.13;;;;;;;16.99;67.76;96581.66;4962818;28;20087;-87
2022/08/22 04:58:01;;;;;;;5.28;4.82;;;;;;;16.97;68.98;96575.81;4962627;28;20055;-88
2022/08/22 05:00:40;;;;;;;5.32;4.82;;;;;;;17.00;66.74;96583.28;4982546;28;20053;-88
2022/08/22 05:03:14;;;;;;;5.13;4.63;;;;;;;17.00;65.65;96583.28;4980972;28;20472;-85
2022/08/22 05:05:44;;;;;;;7.57;5.43;;;;;;;16.99;64.98;96579.84;4981642;28;20051;-84
2022/08/22 05:08:16;;;;;;;6.75;5.03;;;;;;;17.02;64.85;96589.13;4980548;28;20050;-83
2022/08/22 05:10:50;;;;;;;13.27;5.90;;;;;;;17.04;65.28;96590.50;4982233;28;20078;-84
2022/08/22 05:13:23;;;;;;;10.65;5.93;;;;;;;17.12;65.03;96591.22;4982240;28;20053;-82
2022/08/22 05:15:54;;;;;;;7.50;5.82;;;;;;;17.18;65.25;96595.59;4983011;28;20069;-80
2022/08/22 05:18:28;;;;;;;7.32;5.63;;;;;;;17.23;64.64;96601.81;5002436;28;20555;-78
2022/08/22 05:21:00;;;;;;;5.45;4.95;;;;;;;17.28;65.98;96598.50;4989330;28;20087;-82
2022/08/22 05:23:33;;;;;;;6.85;5.10;;;;;;;17.35;65.61;96601.06;4987408;28;20412;-80
2022/08/22 05:26:04;;;;;;;5.93;5.15;;;;;;;17.44;66.84;96604.97;4991678;28;20138;-81
2022/08/22 05:28:35;;;;;;;7.83;5.53;;;;;;;17.48;65.36;96604.28;4986471;28;20043;-80
2022/08/22 05:31:06;;;;;;;7.82;4.85;;;;;;;17.52;70.04;96607.31;4986065;28;20315;-81
2022/08/22 05:33:40;;;;;;;5.22;4.40;;;;;;;17.58;71.07;96616.13;4996393;28;20126;-82
2022/08/22 05:36:12;;;;;;;6.40;5.07;;;;;;;17.61;71.43;96608.56;4984017;28;20133;-80
2022/08/22 05:38:44;;;;;;;5.72;5.22;;;;;;;17.62;69.24;96617.28;4985236;28;20051;-80
2022/08/22 05:41:18;;;;;;;7.95;6.28;;;;;;;17.62;69.35;96606.75;4984671;28;20054;-79
2022/08/22 05:43:48;;;;;;;8.82;5.43;;;;;;;17.63;67.66;96608.38;4984264;28;20548;-78
2022/08/22 05:46:20;;;;;;;7.65;6.13;;;;;;;17.64;67.88;96610.75;4978880;28;20110;-78
2022/08/22 05:48:58;;;;;;;7.13;6.50;;;;;;;17.71;70.85;96610.69;4981845;28;20054;-78
2022/08/22 05:51:32;;;;;;;7.22;6.53;;;;;;;17.75;68.94;96617.09;5001891;28;20053;-81
2022/08/22 05:54:10;;;;;;;6.75;5.75;;;;;;;17.77;66.88;96620.31;4983936;28;20058;-81
2022/08/22 05:56:42;;;;;;;7.95;5.70;;;;;;;17.82;68.29;96622.28;4979779;28;20122;-78
2022/08/22 05:59:22;;;;;;;6.82;6.22;;;;;;;17.87;68.15;96615.31;4981378;28;20536;-77
2022/08/22 06:01:59;;;;;;;7.00;5.88;;;;;;;17.90;67.09;96620.13;4980140;28;20074;-77
2022/08/22 06:04:34;;;;;;;7.85;6.05;;;;;;;17.95;67.01;96623.91;4973170;28;20170;-80
2022/08/22 06:07:06;;;;;;;7.00;5.75;;;;;;;17.99;66.66;96630.34;4976474;28;20497;-79
2022/08/22 06:09:56;;;;;;;7.03;6.30;;;;;;;18.03;66.43;96624.38;4978485;28;20421;-80
2022/08/22 06:12:33;;;;;;;7.70;6.80;;;;;;;18.08;67.29;96626.34;4979625;28;20130;-79
2022/08/22 06:15:13;;;;;;;12.55;9.40;;;;;;;18.14;66.46;96625.44;4980178;28;20101;-80
2022/08/22 06:17:44;;;;;;;8.80;6.82;;;;;;;18.21;67.49;96620.81;4979668;28;20502;-80
2022/08/22 06:20:18;;;;;;;9.20;6.55;;;;;;;18.27;67.24;96625.19;4980774;28;20118;-78
2022/08/22 06:22:51;;;;;;;6.78;6.18;;;;;;;18.33;70.39;96618.22;4983026;28;20062;-78
2022/08/22 06:25:23;;;;;;;6.95;6.25;;;;;;;18.41;71.10;96619.69;4962490;28;20115;-79
2022/08/22 06:27:51;;;;;;;9.82;6.35;;;;;;;18.47;70.57;96616.91;4970146;28;20515;-79
2022/08/22 06:30:20;;;;;;;6.85;6.13;;;;;;;18.52;68.56;96621.53;4982038;28;20051;-78
2022/08/22 06:32:52;;;;;;;6.35;5.75;;;;;;;18.58;70.44;96614.50;4982506;28;20070;-78
2022/08/22 06:36:29;;;;;;;6.97;6.20;;;;;;;18.62;67.04;96611.16;4981795;28;20057;-76
2022/08/22 06:38:21;;;;;;;8.00;7.20;;;;;;;18.68;66.72;96609.44;4981445;28;20603;-78
2022/08/22 06:40:53;;;;;;;7.65;6.25;;;;;;;18.73;67.71;96612.19;4981587;28;20125;-76
2022/08/22 06:43:23;;;;;;;6.95;5.82;;;;;;;18.81;67.38;96619.78;4981746;28;20102;-78
2022/08/22 06:45:52;;;;;;;8.13;5.75;;;;;;;18.88;68.21;96617.81;4982222;28;20054;-77
2022/08/22 06:48:23;;;;;;;6.85;6.13;;;;;;;18.94;68.21;96619.50;4980571;28;20050;-79
2022/08/22 06:50:57;;;;;;;6.50;5.85;;;;;;;19.03;68.67;96627.88;4981561;28;20057;-76
2022/08/22 06:53:29;;;;;;;5.78;5.28;;;;;;;19.08;65.59;96624.53;4980410;28;20047;-79
2022/08/22 06:56:01;;;;;;;8.20;5.55;;;;;;;19.14;66.82;96634.16;4980253;28;20094;-78
2022/08/22 06:58:34;;;;;;;5.38;4.75;;;;;;;19.21;65.95;96623.44;4982171;28;20429;-79
2022/08/22 07:01:06;;;;;;;6.60;5.60;;;;;;;19.27;65.40;96611.94;4982940;28;20051;-79
2022/08/22 07:03:46;;;;;;;5.40;4.90;;;;;;;19.34;64.69;96623.97;4982076;28;20055;-77
2022/08/22 07:06:18;;;;;;;5.60;5.10;;;;;;;19.41;63.96;96618.53;4982448;28;20133;-80
2022/08/22 07:08:46;;;;;;;5.93;5.15;;;;;;;19.51;64.28;96623.22;4982323;28;20074;-79
2022/08/22 07:11:18;;;;;;;6.05;5.30;;;;;;;19.60;63.79;96623.63;4982318;28;20062;-79
2022/08/22 07:13:51;;;;;;;5.63;4.75;;;;;;;19.68;64.16;96624.03;4983209;28;20133;-79
2022/08/22 07:16:28;;;;;;;5.47;4.90;;;;;;;19.77;63.72;96621.84;4982594;28;20086;-82
2022/08/22 07:18:55;;;;;;;6.22;5.35;;;;;;;19.86;63.83;96622.25;4966345;28;20060;-83
2022/08/22 07:21:27;;;;;;;7.03;5.00;;;;;;;19.95;64.85;96621.59;4983451;28;20062;-80
2022/08/22 07:23:59;;;;;;;4.72;4.28;;;;;;;20.06;65.52;96624.41;4996274;28;20164;-83
2022/08/22 07:26:32;;;;;;;5.63;5.05;;;;;;;20.14;63.95;96627.44;4993331;28;20058;-88
2022/08/22 07:29:06;;;;;;;5.18;4.28;;;;;;;20.24;63.09;96626.00;4983701;28;20074;-90
2022/08/22 07:31:45;;;;;;;6.18;4.40;;;;;;;20.34;62.68;96636.75;4981919;28;20051;-88
2022/08/22 07:34:34;;;;;;;4.18;3.78;;;;;;;20.44;62.84;96631.56;4982144;28;20047;-87
2022/08/22 07:37:08;;;;;;;6.13;4.30;;;;;;;20.53;61.32;96635.44;4981503;28;20078;-87
2022/08/22 07:39:42;;;;;;;4.25;3.85;;;;;;;20.63;59.82;96631.34;4983228;28;20077;-84
2022/08/22 07:42:15;;;;;;;5.32;3.83;;;;;;;20.74;59.98;96636.53;4981368;28;20043;-86
2022/08/22 07:44:51;;;;;;;;;;;;;;;20.86;60.85;96632.94;4982278;28;20105;-80
2022/08/22 07:47:22;;;;;;;5.45;4.28;;;;;;;20.95;58.46;96632.28;4978441;28;19957;-78
2022/08/22 07:49:56;;;;;;;3.60;3.30;;;;;;;21.03;57.57;96627.59;4981449;28;20055;-78
2022/08/22 07:52:29;;;;;;;5.30;4.15;;;;;;;21.12;56.63;96626.09;4981470;28;20139;-81
2022/08/22 07:55:09;;;;;;;5.55;4.00;;;;;;;21.22;56.95;96623.56;4979703;28;20159;-80
2022/08/22 07:57:41;;;;;;;5.78;4.20;;;;;;;21.34;55.88;96629.53;4978076;28;20071;-77
2022/08/22 08:00:14;;;;;;;5.18;3.47;;;;;;;21.47;54.96;96643.47;4976701;28;20512;-78
2022/08/22 08:02:46;;;;;;;3.58;3.10;;;;;;;21.59;55.42;96646.78;4978641;28;20046;-78
2022/08/22 08:05:14;;;;;;;4.70;3.10;;;;;;;21.69;55.99;96641.59;4960733;28;20087;-79
2022/08/22 08:07:46;;;;;;;4.03;3.08;;;;;;;21.83;54.60;96641.19;4979182;28;20106;-81
2022/08/22 08:10:18;;;;;;;5.25;2.47;;;;;;;21.94;54.07;96646.31;4977149;28;20101;-76
2022/08/22 08:12:50;;;;;;;5.70;2.90;;;;;;;22.06;53.29;96640.03;4977985;28;20050;-79
2022/08/22 08:15:31;;;;;;;3.97;2.97;;;;;;;22.18;52.98;96638.78;4977993;28;20125;-81
2022/08/22 08:18:04;;;;;;;4.35;3.38;;;;;;;22.28;52.37;96642.59;4978577;28;20073;-79
2022/08/22 08:20:36;;;;;;;6.85;3.50;;;;;;;22.40;51.55;96649.34;4977693;28;20055;-79
2022/08/22 08:23:08;;;;;;;5.20;2.78;;;;;;;22.52;50.53;96659.78;4979357;28;20070;-81
2022/08/22 08:25:52;;;;;;;3.70;2.40;;;;;;;22.65;48.90;96658.50;4994442;28;20050;-80
2022/08/22 08:28:36;;;;;;;3.17;2.45;;;;;;;22.75;50.52;96657.78;4979128;28;20501;-79
2022/08/22 08:31:14;;;;;;;3.33;2.22;;;;;;;22.84;46.12;96658.88;4983216;28;20117;-77
2022/08/22 08:33:46;;;;;;;2.63;1.90;;;;;;;22.90;45.25;96660.50;4984932;28;20050;-78
2022/08/22 08:36:24;;;;;;;;;;;;;;;22.98;45.48;96654.72;4981851;28;20186;-78
2022/08/22 08:38:59;;;;;;;4.47;1.90;;;;;;;23.06;45.47;96669.38;4978205;28;20002;-78
2022/08/22 08:41:39;;;;;;;1.70;1.60;;;;;;;23.16;45.71;96655.34;4977942;28;20046;-78
2022/08/22 08:44:21;;;;;;;2.75;1.95;;;;;;;23.28;43.75;96666.53;4978137;28;20125;-78
2022/08/22 08:47:14;;;;;;;3.17;1.90;;;;;;;23.38;44.02;96665.78;4979060;28;20053;-78
2022/08/22 08:49:57;;;;;;;3.35;1.58;;;;;;;23.49;43.08;96662.09;4975783;28;20087;-78
2022/08/22 08:52:49;;;;;;;3.47;1.70;;;;;;;23.59;42.34;96654.13;4978887;28;20053;-81
2022/08/22 08:55:33;;;;;;;3.75;1.88;;;;;;;23.67;42.63;96660.78;4978631;28;20134;-79
2022/08/22 08:58:25;;;;;;;2.55;1.60;;;;;;;23.80;42.96;96662.16;4977681;28;20057;-78
2022/08/22 09:01:00;;;;;;;3.10;1.67;;;;;;;23.92;45.67;96654.72;4979544;28;20081;-77
2022/08/22 09:04:07;;;;;;;5.22;1.67;;;;;;;24.05;42.72;96659.53;4979480;28;20054;-77
2022/08/22 09:06:59;;;;;;;2.58;1.65;;;;;;;24.16;41.94;96655.00;4977774;28;20073;-81
2022/08/22 09:09:41;;;;;;;3.33;1.98;;;;;;;24.22;43.43;96653.91;4973788;28;20133;-77
2022/08/22 09:12:26;;;;;;;;;;;;;;;24.26;43.10;96654.97;4976136;28;20051;-77
2022/08/22 09:15:17;;;;;;;7.78;1.65;;;;;;;24.39;41.07;96644.84;4977193;28;19922;-77
2022/08/22 09:18:13;;;;;;;3.72;1.95;;;;;;;24.68;39.93;96645.06;4975440;28;20088;-74
2022/08/22 09:21:23;;;;;;;3.85;1.50;;;;;;;25.01;39.09;96656.16;4976816;28;20094;-77
2022/08/22 09:24:23;;;;;;;2.30;1.40;;;;;;;25.33;38.39;96655.00;4969045;28;20121;-77
2022/08/22 09:26:55;;;;;;;2.85;1.58;;;;;;;25.58;38.42;96651.38;4977100;28;20082;-75
2022/08/22 09:29:38;;;;;;;3.58;1.63;;;;;;;25.80;36.46;96651.78;4976749;28;20054;-78
2022/08/22 09:32:37;;;;;;;3.95;1.67;;;;;;;25.97;35.92;96651.41;4976558;28;20124;-77
2022/08/22 09:35:15;;;;;;;3.63;1.70;;;;;;;26.13;36.20;96641.41;4977390;28;20051;-78
2022/08/22 09:37:51;;;;;;;2.53;1.50;;;;;;;26.29;35.40;96648.19;4975612;28;20054;-78
2022/08/22 09:40:25;;;;;;;3.60;1.65;;;;;;;26.38;35.32;96636.88;4977070;28;20420;-77
2022/08/22 09:43:02;;;;;;;2.20;1.48;;;;;;;26.46;35.78;96644.31;4976741;28;20054;-77
2022/08/22 09:45:40;;;;;;;2.88;1.65;;;;;;;26.52;35.89;96635.94;4978287;28;20517;-76
2022/08/22 15:00:37;;;;;;;6.55;2.30;;;;;;;26.82;32.16;96502.09;5613512;23;20052;-79
2022/08/22 16:24:30;;;;;;;3.03;1.52;;;;;;;25.90;31.36;96445.94;5213001;23;20053;-75
2022/08/22 16:27:17;;;;;;;1.83;1.38;;;;;;;25.87;31.60;96449.16;4915662;29;20049;-75
2022/08/22 16:29:45;;;;;;;4.70;1.27;;;;;;;25.84;31.36;96438.25;4905005;29;20045;-75
2022/08/22 16:32:25;;;;;;;2.70;1.42;;;;;;;25.82;32.10;96449.22;4898964;29;20048;-76
2022/08/22 16:34:52;;;;;;;2.25;1.42;;;;;;;25.82;31.88;96446.56;4879930;29;20045;-75
2022/08/22 16:37:41;;;;;;;1.70;1.10;;;;;;;25.80;31.54;96454.06;4879586;29;20497;-75
2022/08/22 16:40:15;;;;;;;3.67;1.48;;;;;;;25.78;31.75;96448.19;4879108;29;20132;-75
2022/08/22 16:42:46;;;;;;;2.63;1.30;;;;;;;25.77;31.96;96451.94;4879828;29;20068;-75
2022/08/22 16:45:18;;;;;;;1.88;1.40;;;;;;;25.75;31.93;96451.41;4879238;29;20049;-74
2022/08/22 16:47:49;;;;;;;1.20;1.10;;;;;;;25.74;32.14;96449.06;4879795;29;20053;-75
2022/08/22 16:50:33;;;;;;;4.22;1.40;;;;;;;25.72;31.93;96454.66;4879836;29;20052;-74
2022/08/22 16:53:08;;;;;;;1.83;1.00;;;;;;;25.72;32.10;96453.88;4878496;29;20128;-75
2022/08/22 16:55:44;;;;;;;3.00;1.40;;;;;;;25.68;32.36;96438.41;4878767;29;20136;-75
2022/08/22 16:58:53;;;;;;;4.03;1.20;;;;;;;25.66;32.08;96447.78;4879249;29;20128;-75
2022/08/22 17:01:58;;;;;;;3.00;1.50;;;;;;;25.62;32.51;96441.41;4851968;29;20472;-74
2022/08/22 17:04:37;;;;;;;4.53;1.48;;;;;;;25.60;32.35;96446.22;4878769;29;20060;-74
2022/08/22 17:07:18;;;;;;;2.95;1.30;;;;;;;25.58;32.57;96457.22;4879996;29;20155;-77
2022/08/22 17:09:59;;;;;;;12.82;1.63;;;;;;;25.54;32.66;96456.19;4883477;29;20104;-74
2022/08/22 17:12:45;;;;;;;2.50;1.50;;;;;;;25.51;33.06;96459.38;4881389;29;20053;-76
2022/08/22 17:15:24;;;;;;;4.75;1.67;;;;;;;25.48;32.76;96458.09;4878948;29;20194;-75
2022/08/22 17:18:07;;;;;;;2.35;1.20;;;;;;;25.44;32.99;96462.38;4885242;29;20061;-77
2022/08/22 17:20:46;;;;;;;3.78;1.77;;;;;;;25.39;33.34;96457.09;4878111;29;20060;-75
2022/08/22 17:23:24;;;;;;;2.45;1.67;;;;;;;25.36;33.07;96468.31;4885982;29;20113;-77
2022/08/22 17:26:17;;;;;;;3.70;1.85;;;;;;;25.29;33.16;96463.31;4898040;29;20076;-76
2022/08/22 17:28:56;;;;;;;2.78;1.55;;;;;;;25.25;33.47;96466.81;4887317;29;20484;-77
2022/08/22 17:31:31;;;;;;;2.25;1.48;;;;;;;25.22;33.51;96462.03;4891703;29;20071;-76
2022/08/22 17:34:08;;;;;;;2.85;1.52;;;;;;;25.18;34.08;96471.66;4897143;29;20048;-76
2022/08/22 17:36:51;;;;;;;4.03;1.30;;;;;;;25.14;34.08;96465.28;4899405;29;20069;-77
2022/08/22 17:39:35;;;;;;;1.65;1.30;;;;;;;25.09;33.78;96460.78;4885162;29;20056;-77
2022/08/22 17:42:19;;;;;;;1.70;1.27;;;;;;;25.06;33.85;96472.81;4879527;29;20107;-77
2022/08/22 17:44:56;;;;;;;1.98;1.48;;;;;;;25.03;34.57;96473.34;4879196;29;20051;-77
2022/08/22 17:47:30;;;;;;;2.05;1.40;;;;;;;24.99;33.77;96480.34;4884155;29;20431;-77
2022/08/22 17:50:04;;;;;;;1.77;1.30;;;;;;;24.96;34.36;96480.88;4883079;29;20531;-75
2022/08/22 17:52:37;;;;;;;3.78;2.17;;;;;;;24.91;34.09;96485.47;4882434;29;20480;-76
2022/08/22 17:55:14;;;;;;;6.20;1.80;;;;;;;24.85;34.61;96484.69;4880660;29;20049;-77
2022/08/22 17:57:49;;;;;;;1.75;1.40;;;;;;;24.81;34.99;96488.97;4884644;29;20136;-77
2022/08/22 18:00:26;;;;;;;2.83;1.30;;;;;;;24.76;34.92;96491.66;4881369;29;20056;-78
2022/08/22 18:02:59;;;;;;;2.75;1.60;;;;;;;24.70;34.85;96485.56;4902837;29;20056;-77
2022/08/22 18:05:31;;;;;;;6.93;1.90;;;;;;;24.65;35.59;96485.59;4902068;29;20041;-77
2022/08/22 18:08:06;;;;;;;5.30;1.65;;;;;;;24.60;35.12;96489.09;4902342;29;20049;-77
2022/08/22 18:10:45;;;;;;;2.50;1.45;;;;;;;24.55;35.51;96490.97;4902398;29;20037;-77
2022/08/22 18:13:19;;;;;;;3.33;1.38;;;;;;;24.50;35.25;96494.44;4902677;29;20037;-77
2022/08/22 18:15:53;;;;;;;1.25;1.00;;;;;;;24.45;36.24;96497.13;4904451;29;20071;-76
2022/08/22 18:18:28;;;;;;;3.25;1.52;;;;;;;24.41;35.94;96506.72;4904014;29;20067;-77
2022/08/22 18:21:02;;;;;;;2.58;1.10;;;;;;;24.34;35.61;96504.34;4901550;29;20049;-76
2022/08/22 18:23:36;;;;;;;2.25;1.40;;;;;;;24.30;35.90;96511.31;4903734;29;20029;-77
2022/08/22 18:26:20;;;;;;;3.00;1.17;;;;;;;24.23;35.99;96503.59;4894817;29;20057;-77
2022/08/22 18:28:54;;;;;;;2.60;1.58;;;;;;;24.16;36.70;96510.25;4892455;29;20053;-77
2022/08/22 18:31:34;;;;;;;2.03;1.33;;;;;;;24.10;36.83;96516.69;4894528;29;20117;-77
2022/08/22 18:34:15;;;;;;;3.47;1.75;;;;;;;24.04;36.73;96513.22;4875117;29;20280;-77
2022/08/22 18:36:53;;;;;;;3.03;1.35;;;;;;;23.96;36.90;96519.91;4898458;29;20108;-77
2022/08/22 18:39:25;;;;;;;2.13;1.27;;;;;;;23.92;38.54;96526.03;4893736;29;20051;-76
2022/08/22 18:42:02;;;;;;;2.65;1.38;;;;;;;23.88;37.93;96522.31;4899853;29;20057;-77
2022/08/22 18:44:33;;;;;;;1.92;1.17;;;;;;;23.84;38.60;96525.53;4901101;29;20049;-77
2022/08/22 18:47:12;;;;;;;1.80;1.27;;;;;;;23.80;38.34;96524.44;4899003;29;20053;-77
2022/08/22 18:49:47;;;;;;;5.00;1.92;;;;;;;23.78;37.42;96526.59;4900443;29;20456;-76
2022/08/22 18:52:19;;;;;;;2.47;1.25;;;;;;;23.72;37.47;96529.50;4902315;29;20149;-76
2022/08/22 18:55:12;;;;;;;2.75;1.60;;;;;;;23.65;37.88;96533.22;4900897;29;20060;-77
2022/08/22 18:57:58;;;;;;;1.90;1.80;;;;;;;23.60;37.27;96535.88;4892861;29;20068;-77
2022/08/22 19:00:50;;;;;;;5.18;1.38;;;;;;;23.56;37.53;96542.03;4892048;29;20063;-77
2022/08/22 19:03:34;;;;;;;2.70;1.80;;;;;;;23.50;37.52;96543.06;4893957;29;20060;-77
2022/08/22 19:06:31;;;;;;;4.15;1.00;;;;;;;23.42;37.70;96544.41;4898093;29;20076;-77